Time;durP1;ratioP1;P1;durP2;ratioP2;P2;SDS_P1;SDS_P2;PMS_P1;PMS_P2;Temp;Humidity;BMP_temperature;BMP_pressure;BME280_temperature;BME280_humidity;BME280_pressure;Samples;Min_cycle;Max_cycle;Signal;HPM_P1;HPM_P2
2021/11/22 00:01:08;;;;;;;9.63;6.40;;;5.60;99.90;;;;;;5015397;28;20167;-67
2021/11/22 00:03:35;;;;;;;9.85;6.30;;;5.60;99.90;;;;;;5015280;28;20224;-66
2021/11/22 00:06:00;;;;;;;10.88;7.03;;;5.60;99.90;;;;;;5015120;28;20170;-64
2021/11/22 00:08:26;;;;;;;11.40;7.40;;;5.60;99.90;;;;;;5014960;28;20278;-66
2021/11/22 00:10:52;;;;;;;8.67;6.67;;;5.60;99.90;;;;;;5014931;28;20179;-67
2021/11/22 00:13:18;;;;;;;7.25;5.85;;;5.60;99.90;;;;;;5015235;28;20645;-66
2021/11/22 00:15:44;;;;;;;11.40;6.10;;;5.60;99.90;;;;;;5015149;28;20218;-65
2021/11/22 00:18:10;;;;;;;12.83;7.27;;;5.60;99.90;;;;;;5014723;28;20852;-67
2021/11/22 00:20:35;;;;;;;12.43;8.97;;;5.60;99.90;;;;;;5015224;28;20748;-65
2021/11/22 00:23:01;;;;;;;11.00;4.90;;;5.70;99.90;;;;;;5015111;28;20270;-67
2021/11/22 00:25:27;;;;;;;12.40;6.83;;;5.60;99.90;;;;;;5014815;28;20417;-64
2021/11/22 00:27:52;;;;;;;9.13;6.67;;;5.70;99.90;;;;;;5014485;28;20653;-65
2021/11/22 00:30:19;;;;;;;13.07;6.07;;;5.60;99.90;;;;;;5014984;28;20639;-67
2021/11/22 00:32:45;;;;;;;12.63;7.65;;;5.60;99.90;;;;;;5014839;28;20178;-64
2021/11/22 00:35:14;;;;;;;17.23;7.57;;;5.60;99.90;;;;;;5014696;28;20276;-65
2021/11/22 00:37:41;;;;;;;7.88;5.85;;;5.70;99.90;;;;;;5013972;28;20552;-65
2021/11/22 00:40:10;;;;;;;14.75;6.63;;;5.70;99.90;;;;;;5014408;28;20241;-66
2021/11/22 00:42:37;;;;;;;20.23;7.70;;;5.70;99.90;;;;;;5014468;28;20166;-67
2021/11/22 00:45:04;;;;;;;10.40;7.07;;;5.80;99.90;;;;;;5014479;28;20652;-67
2021/11/22 00:47:30;;;;;;;7.13;5.88;;;5.70;99.90;;;;;;5014007;28;20179;-64
2021/11/22 00:49:56;;;;;;;12.07;7.40;;;5.80;99.90;;;;;;5014313;28;20232;-68
2021/11/22 00:52:22;;;;;;;8.60;5.40;;;5.80;99.90;;;;;;5014256;28;20425;-64
2021/11/22 00:54:48;;;;;;;10.30;7.67;;;5.80;99.90;;;;;;5014426;28;20191;-67
2021/11/22 00:57:14;;;;;;;7.40;5.00;;;5.80;99.90;;;;;;5014235;28;20417;-64
2021/11/22 00:59:39;;;;;;;10.13;6.85;;;5.80;99.90;;;;;;5014258;28;20229;-66
2021/11/22 01:02:05;;;;;;;13.50;7.70;;;5.70;99.90;;;;;;5014424;28;20518;-65
2021/11/22 01:04:31;;;;;;;10.80;6.80;;;5.70;99.90;;;;;;5014172;28;20685;-67
2021/11/22 01:06:56;;;;;;;11.53;7.43;;;5.70;99.90;;;;;;5013875;28;20525;-67
2021/11/22 01:09:22;;;;;;;9.17;6.70;;;5.80;99.90;;;;;;5014056;28;20203;-65
2021/11/22 01:11:48;;;;;;;6.87;6.17;;;5.70;99.90;;;;;;5014064;28;20177;-67
2021/11/22 01:14:15;;;;;;;7.77;6.33;;;5.70;99.90;;;;;;5014135;28;20641;-66
2021/11/22 01:16:42;;;;;;;13.20;6.65;;;5.60;99.90;;;;;;5013621;28;20426;-66
2021/11/22 01:19:08;;;;;;;12.38;8.02;;;5.70;99.90;;;;;;5013795;28;20237;-65
2021/11/22 01:21:34;;;;;;;9.00;6.10;;;5.60;99.90;;;;;;5021637;28;20178;-68
2021/11/22 01:24:00;;;;;;;15.65;7.57;;;5.60;99.90;;;;;;5032328;28;20649;-65
2021/11/22 01:26:26;;;;;;;9.13;6.87;;;5.60;99.90;;;;;;5033563;28;20178;-67
2021/11/22 01:28:52;;;;;;;12.40;8.20;;;5.70;99.90;;;;;;5033448;28;20249;-65
2021/11/22 01:31:18;;;;;;;12.57;7.53;;;5.70;99.90;;;;;;5033557;28;20182;-67
2021/11/22 01:33:44;;;;;;;11.23;7.32;;;5.60;99.90;;;;;;5033285;28;20421;-67
2021/11/22 01:36:10;;;;;;;13.37;8.10;;;5.70;99.90;;;;;;5033163;28;20174;-64
2021/11/22 01:38:36;;;;;;;11.83;5.80;;;5.70;99.90;;;;;;5033009;28;20206;-67
2021/11/22 01:41:03;;;;;;;9.30;7.07;;;5.70;99.90;;;;;;5033482;28;20209;-66
2021/11/22 01:43:30;;;;;;;14.60;8.10;;;5.70;99.90;;;;;;5033930;28;20170;-65
2021/11/22 01:45:56;;;;;;;12.60;6.45;;;5.80;99.90;;;;;;5033397;28;20173;-64
2021/11/22 01:48:23;;;;;;;15.32;6.45;;;5.70;99.90;;;;;;5033171;28;20190;-66
2021/11/22 01:50:49;;;;;;;13.35;8.15;;;5.70;99.90;;;;;;5033177;28;20201;-65
2021/11/22 01:53:16;;;;;;;9.85;7.00;;;5.80;99.90;;;;;;5033260;28;20172;-66
2021/11/22 01:55:43;;;;;;;8.82;5.72;;;5.70;99.90;;;;;;5033176;28;20193;-65
2021/11/22 01:58:10;;;;;;;13.98;8.27;;;5.70;99.90;;;;;;5032824;28;20191;-67
2021/11/22 02:00:42;;;;;;;11.50;6.75;;;5.60;99.90;;;;;;5033379;28;20211;-66
2021/11/22 02:03:08;;;;;;;9.30;6.07;;;5.60;99.90;;;;;;5032594;28;20633;-67
2021/11/22 02:05:35;;;;;;;10.52;6.80;;;5.50;99.90;;;;;;5033312;28;20176;-65
2021/11/22 02:08:02;;;;;;;15.57;6.97;;;5.60;99.90;;;;;;5032786;28;20190;-66
2021/11/22 02:10:28;;;;;;;8.18;6.50;;;5.60;99.90;;;;;;5033093;28;20189;-65
2021/11/22 02:12:53;;;;;;;11.13;4.90;;;5.70;99.90;;;;;;5033171;28;20178;-66
2021/11/22 02:15:20;;;;;;;13.40;7.07;;;5.70;99.90;;;;;;5033094;28;20175;-63
2021/11/22 02:17:49;;;;;;;11.43;6.68;;;5.70;99.90;;;;;;5032553;28;20801;-65
2021/11/22 02:20:23;;;;;;;9.02;6.45;;;5.60;99.90;;;;;;5032700;28;20288;-66
2021/11/22 02:22:50;;;;;;;9.20;6.15;;;5.60;99.90;;;;;;5033177;28;20642;-67
2021/11/22 02:25:18;;;;;;;13.52;7.43;;;5.60;99.90;;;;;;5031706;28;20652;-66
2021/11/22 02:27:46;;;;;;;14.15;8.20;;;5.60;99.90;;;;;;5032513;28;20209;-65
2021/11/22 02:30:13;;;;;;;13.07;6.40;;;5.60;99.90;;;;;;5032803;28;20189;-65
2021/11/22 02:32:42;;;;;;;10.57;7.40;;;5.60;99.90;;;;;;5033243;28;20194;-65
2021/11/22 02:35:11;;;;;;;9.65;7.25;;;5.60;99.90;;;;;;5031681;28;20197;-67
2021/11/22 02:37:37;;;;;;;10.20;6.63;;;5.60;99.90;;;;;;5032538;28;20190;-66
2021/11/22 02:40:05;;;;;;;17.07;8.73;;;5.60;99.90;;;;;;5033201;28;20292;-64
2021/11/22 02:42:32;;;;;;;17.13;6.38;;;5.50;99.90;;;;;;5033250;28;20170;-66
2021/11/22 02:44:59;;;;;;;14.38;6.60;;;5.40;99.90;;;;;;5032805;28;20179;-66
2021/11/22 02:47:25;;;;;;;12.77;6.82;;;5.50;99.90;;;;;;5032664;28;20613;-66
2021/11/22 02:49:51;;;;;;;8.48;7.07;;;5.40;99.90;;;;;;5032865;28;20570;-67
2021/11/22 02:52:17;;;;;;;11.70;7.40;;;5.40;99.90;;;;;;5032674;28;20189;-67
2021/11/22 02:54:43;;;;;;;12.73;7.60;;;5.40;99.90;;;;;;5032852;28;20182;-66
2021/11/22 02:57:10;;;;;;;13.80;8.65;;;5.50;99.90;;;;;;5031204;28;20757;-65
2021/11/22 02:59:40;;;;;;;11.20;8.23;;;5.50;99.90;;;;;;5032832;28;20198;-65
2021/11/22 03:02:14;;;;;;;21.75;9.25;;;5.50;99.90;;;;;;5032872;28;20518;-64
2021/11/22 03:04:43;;;;;;;14.32;6.70;;;5.50;99.90;;;;;;5032936;28;20220;-65
2021/11/22 03:07:09;;;;;;;17.98;7.22;;;5.50;99.90;;;;;;5032378;28;20216;-64
2021/11/22 03:09:36;;;;;;;14.55;8.63;;;5.50;99.90;;;;;;5032517;28;20187;-66
2021/11/22 03:12:05;;;;;;;17.90;7.88;;;5.50;99.90;;;;;;5032510;28;20689;-64
2021/11/22 03:14:32;;;;;;;13.95;8.45;;;5.50;99.90;;;;;;5033042;28;20558;-66
2021/11/22 03:16:58;;;;;;;9.05;6.45;;;5.40;99.90;;;;;;5035696;28;20189;-65
2021/11/22 03:19:24;;;;;;;24.30;7.53;;;5.40;99.90;;;;;;5035887;28;20209;-65
2021/11/22 03:21:51;;;;;;;13.00;8.63;;;5.40;99.90;;;;;;5025935;28;20255;-64
2021/11/22 03:24:18;;;;;;;13.27;8.63;;;5.40;99.90;;;;;;5016126;28;20716;-66
2021/11/22 03:26:43;;;;;;;9.93;8.90;;;5.40;99.90;;;;;;5015756;28;20175;-65
2021/11/22 03:29:09;;;;;;;13.07;8.90;;;5.40;99.90;;;;;;5015884;28;20196;-65
2021/11/22 03:31:37;;;;;;;15.13;8.43;;;5.40;99.90;;;;;;5015995;28;20445;-67
2021/11/22 03:34:06;;;;;;;9.05;5.80;;;5.40;99.90;;;;;;5016013;28;20410;-65
2021/11/22 03:36:32;;;;;;;9.18;8.00;;;5.40;99.90;;;;;;5015419;28;20179;-67
2021/11/22 03:39:00;;;;;;;10.98;6.95;;;5.40;99.90;;;;;;5015658;28;20289;-64
2021/11/22 03:41:28;;;;;;;11.02;8.82;;;5.40;99.90;;;;;;5016065;28;20593;-65
2021/11/22 03:44:10;;;;;;;13.25;8.57;;;5.40;99.90;;;;;;5016022;28;20186;-64
2021/11/22 03:46:37;;;;;;;12.43;8.02;;;5.40;99.90;;;;;;5015543;28;20203;-68
2021/11/22 03:49:03;;;;;;;10.35;8.57;;;5.30;99.90;;;;;;5015451;28;20198;-66
2021/11/22 03:51:29;;;;;;;10.07;7.57;;;5.30;99.90;;;;;;5015568;28;20206;-68
2021/11/22 03:53:55;;;;;;;18.80;9.38;;;5.30;99.90;;;;;;5015727;28;20170;-66
2021/11/22 03:56:21;;;;;;;13.10;7.37;;;5.30;99.90;;;;;;5015431;28;20178;-67
2021/11/22 03:58:46;;;;;;;10.23;7.43;;;5.30;99.90;;;;;;5015352;28;20186;-66
2021/11/22 04:01:12;;;;;;;14.40;7.93;;;5.30;99.90;;;;;;5015639;28;20500;-68
2021/11/22 04:03:37;;;;;;;15.13;9.17;;;5.30;99.90;;;;;;5015412;28;20209;-67
2021/11/22 04:06:03;;;;;;;11.40;9.37;;;5.40;99.90;;;;;;5015388;28;20198;-67
2021/11/22 04:08:29;;;;;;;11.33;8.60;;;5.30;99.90;;;;;;5014841;28;20230;-68
2021/11/22 04:10:55;;;;;;;14.33;7.60;;;5.30;99.90;;;;;;5015224;28;20183;-66
2021/11/22 04:13:20;;;;;;;9.77;7.40;;;5.30;99.90;;;;;;5015387;28;20406;-66
2021/11/22 04:15:46;;;;;;;16.87;7.60;;;5.30;99.90;;;;;;5015455;28;20305;-66
2021/11/22 04:18:13;;;;;;;8.47;7.57;;;5.30;99.90;;;;;;5014706;28;20203;-67
2021/11/22 04:20:39;;;;;;;13.75;8.40;;;5.30;99.90;;;;;;5015092;28;20198;-66
2021/11/22 04:23:06;;;;;;;10.65;7.68;;;5.30;99.90;;;;;;5034843;28;20174;-66
2021/11/22 04:25:33;;;;;;;12.43;8.73;;;5.30;99.90;;;;;;5034499;28;20171;-66
2021/11/22 04:27:59;;;;;;;12.23;8.70;;;5.30;99.90;;;;;;5034272;28;20186;-68
2021/11/22 04:30:25;;;;;;;16.55;11.02;;;5.20;99.90;;;;;;5034578;28;20246;-66
2021/11/22 04:32:51;;;;;;;15.33;8.60;;;5.30;99.90;;;;;;5034650;28;20274;-68
2021/11/22 04:35:17;;;;;;;16.87;8.40;;;5.30;99.90;;;;;;5033457;28;20432;-66
2021/11/22 04:37:43;;;;;;;15.10;10.07;;;5.30;99.90;;;;;;5033992;28;20500;-67
2021/11/22 04:40:13;;;;;;;10.52;7.38;;;5.30;99.90;;;;;;5034600;28;20564;-66
2021/11/22 04:42:39;;;;;;;11.30;6.95;;;5.30;99.90;;;;;;5034475;28;20174;-66
2021/11/22 04:45:06;;;;;;;14.05;8.02;;;5.30;99.90;;;;;;5034279;28;20175;-66
2021/11/22 04:47:34;;;;;;;12.25;9.32;;;5.40;99.90;;;;;;5033991;28;20167;-67
2021/11/22 04:50:00;;;;;;;10.25;8.52;;;5.40;99.90;;;;;;5034376;28;20202;-66
2021/11/22 04:52:26;;;;;;;8.13;7.10;;;5.40;99.90;;;;;;5034268;28;20593;-67
2021/11/22 04:54:52;;;;;;;11.80;8.90;;;5.40;99.90;;;;;;5034269;28;20205;-68
2021/11/22 04:57:17;;;;;;;12.90;6.83;;;5.50;99.90;;;;;;5033962;28;20257;-65
2021/11/22 04:59:43;;;;;;;11.77;7.50;;;5.50;99.90;;;;;;5033893;28;20218;-67
2021/11/22 05:02:10;;;;;;;14.10;7.67;;;5.50;99.90;;;;;;5034003;28;20171;-67
2021/11/22 05:04:36;;;;;;;13.95;7.32;;;5.40;99.90;;;;;;5033933;28;20176;-66
2021/11/22 05:07:03;;;;;;;12.70;7.15;;;5.40;99.90;;;;;;5033577;28;20198;-65
2021/11/22 05:09:29;;;;;;;16.40;7.90;;;5.50;99.90;;;;;;5033988;28;20198;-67
2021/11/22 05:11:55;;;;;;;13.35;8.60;;;5.40;99.90;;;;;;5034170;28;20260;-65
2021/11/22 05:14:20;;;;;;;8.43;6.63;;;5.40;99.90;;;;;;5032793;28;20178;-65
2021/11/22 05:16:46;;;;;;;12.30;7.70;;;5.40;99.90;;;;;;5033607;28;20189;-68
2021/11/22 05:19:13;;;;;;;14.67;7.90;;;5.40;99.90;;;;;;5033652;28;20237;-64
2021/11/22 05:21:39;;;;;;;11.15;7.20;;;5.30;99.90;;;;;;5025553;28;20175;-63
2021/11/22 05:24:05;;;;;;;7.70;6.70;;;5.40;99.90;;;;;;5014043;28;20197;-67
2021/11/22 05:26:31;;;;;;;10.57;6.65;;;5.40;99.90;;;;;;5013650;28;20456;-67
2021/11/22 05:28:58;;;;;;;10.85;6.78;;;5.40;99.90;;;;;;5013513;28;20550;-67
2021/11/22 05:31:23;;;;;;;10.88;6.75;;;5.40;99.90;;;;;;5013959;28;20630;-67
2021/11/22 05:33:50;;;;;;;10.27;6.27;;;5.40;99.90;;;;;;5014363;28;20191;-66
2021/11/22 05:36:16;;;;;;;12.18;6.43;;;5.40;99.90;;;;;;5013780;28;20405;-65
2021/11/22 05:38:42;;;;;;;11.82;6.85;;;5.40;99.90;;;;;;5013093;28;20190;-68
2021/11/22 05:41:08;;;;;;;10.60;7.10;;;5.40;99.90;;;;;;5013804;28;20571;-65
2021/11/22 05:43:36;;;;;;;14.33;8.00;;;5.40;99.90;;;;;;5013942;28;20918;-64
2021/11/22 05:46:02;;;;;;;10.63;7.88;;;5.40;99.90;;;;;;5015334;28;20177;-68
2021/11/22 05:48:28;;;;;;;13.90;7.75;;;5.40;99.90;;;;;;5015318;28;20673;-67
2021/11/22 05:50:55;;;;;;;12.10;6.70;;;5.40;99.90;;;;;;5015102;28;20174;-66
2021/11/22 05:53:22;;;;;;;10.52;6.45;;;5.40;99.90;;;;;;5015995;28;20267;-65
2021/11/22 05:55:51;;;;;;;13.07;7.57;;;5.40;99.90;;;;;;5015127;28;20608;-65
2021/11/22 05:58:19;;;;;;;8.73;7.20;;;5.40;99.90;;;;;;5017749;28;20193;-66
2021/11/22 06:00:45;;;;;;;11.40;6.30;;;5.40;99.90;;;;;;5018984;28;20242;-64
2021/11/22 06:03:11;;;;;;;8.10;7.10;;;5.40;99.90;;;;;;5015577;28;20537;-65
2021/11/22 06:05:37;;;;;;;12.30;7.85;;;5.40;99.90;;;;;;5012366;28;20587;-67
2021/11/22 06:08:03;;;;;;;13.83;8.00;;;5.40;99.90;;;;;;5011457;28;20281;-67
2021/11/22 06:10:29;;;;;;;10.70;7.88;;;5.40;99.90;;;;;;5012863;28;20174;-66
2021/11/22 06:12:55;;;;;;;8.57;6.27;;;5.50;99.90;;;;;;5012084;28;20177;-68
2021/11/22 06:15:21;;;;;;;11.57;6.93;;;5.50;99.90;;;;;;5011843;28;20172;-66
2021/11/22 06:17:47;;;;;;;13.75;8.75;;;5.50;99.90;;;;;;5012769;28;20448;-68
2021/11/22 06:20:12;;;;;;;14.57;8.67;;;5.50;99.90;;;;;;5013122;28;20673;-66
2021/11/22 06:22:39;;;;;;;14.37;8.93;;;5.50;99.90;;;;;;5011990;28;20194;-68
2021/11/22 06:25:06;;;;;;;14.07;8.63;;;5.50;99.90;;;;;;5033124;28;20174;-68
2021/11/22 06:27:31;;;;;;;10.60;8.88;;;5.50;99.90;;;;;;5032537;28;20637;-67
2021/11/22 06:29:57;;;;;;;9.27;6.40;;;5.60;99.90;;;;;;5032909;28;20213;-67
2021/11/22 06:32:27;;;;;;;13.07;7.10;;;5.60;99.90;;;;;;5032907;28;20596;-69
2021/11/22 06:34:54;;;;;;;11.63;8.32;;;5.60;99.90;;;;;;5032997;28;20182;-68
2021/11/22 06:37:21;;;;;;;10.15;7.38;;;5.60;99.90;;;;;;5032558;28;20198;-66
2021/11/22 06:39:48;;;;;;;10.30;6.35;;;5.60;99.90;;;;;;5032760;28;20607;-67
2021/11/22 06:42:15;;;;;;;7.20;5.43;;;5.60;99.90;;;;;;5032916;28;20166;-66
2021/11/22 06:44:41;;;;;;;11.63;8.40;;;5.60;99.90;;;;;;5032603;28;20633;-67
2021/11/22 06:47:06;;;;;;;9.33;6.80;;;5.60;99.90;;;;;;5032551;28;20178;-68
2021/11/22 06:49:32;;;;;;;11.17;6.33;;;5.60;99.90;;;;;;5035047;28;20480;-66
2021/11/22 06:51:58;;;;;;;6.77;5.07;;;5.60;99.90;;;;;;5036577;28;20206;-67
2021/11/22 06:54:24;;;;;;;7.13;6.43;;;5.50;99.90;;;;;;5036486;28;20174;-68
2021/11/22 06:56:49;;;;;;;11.00;6.33;;;5.60;99.90;;;;;;5036119;28;20170;-67
2021/11/22 06:59:15;;;;;;;14.47;6.60;;;5.60;99.90;;;;;;5036336;28;20204;-69
2021/11/22 07:01:43;;;;;;;8.87;6.37;;;5.60;99.90;;;;;;5036630;28;20259;-67
2021/11/22 07:04:09;;;;;;;13.13;7.18;;;5.60;99.90;;;;;;5036273;28;20166;-66
2021/11/22 07:06:35;;;;;;;9.13;5.75;;;5.60;99.90;;;;;;5035936;28;20171;-67
2021/11/22 07:09:02;;;;;;;10.10;7.28;;;5.60;99.90;;;;;;5036202;28;20192;-66
2021/11/22 07:11:28;;;;;;;10.27;6.97;;;5.60;99.90;;;;;;5036207;28;20168;-69
2021/11/22 07:13:54;;;;;;;14.03;7.50;;;5.60;99.90;;;;;;5036361;28;20189;-67
2021/11/22 07:16:21;;;;;;;10.30;7.63;;;5.60;99.90;;;;;;5035688;28;20169;-66
2021/11/22 07:18:47;;;;;;;8.10;5.35;;;5.60;99.90;;;;;;5036007;28;20197;-66
2021/11/22 07:21:12;;;;;;;6.65;5.00;;;5.60;99.90;;;;;;5030745;28;20195;-71
2021/11/22 07:23:39;;;;;;;8.10;7.37;;;5.60;99.90;;;;;;5017310;28;20170;-64
2021/11/22 07:26:05;;;;;;;10.02;5.90;;;5.70;99.90;;;;;;5030896;28;20625;-67
2021/11/22 07:28:31;;;;;;;8.15;5.03;;;5.70;99.90;;;;;;5055679;28;20559;-67
2021/11/22 07:30:57;;;;;;;10.60;6.63;;;5.70;99.90;;;;;;5025197;28;20659;-69
2021/11/22 07:33:24;;;;;;;6.30;5.20;;;5.70;99.90;;;;;;5016979;28;20680;-67
2021/11/22 07:35:50;;;;;;;10.48;4.50;;;5.70;99.90;;;;;;5028687;28;20217;-68
2021/11/22 07:38:16;;;;;;;8.85;6.78;;;5.80;99.90;;;;;;5027381;28;20243;-68
2021/11/22 07:40:43;;;;;;;6.38;5.55;;;5.80;99.90;;;;;;5025148;28;20207;-67
2021/11/22 07:43:08;;;;;;;8.05;4.60;;;5.90;99.90;;;;;;5029961;28;20233;-66
2021/11/22 07:45:35;;;;;;;8.20;6.40;;;5.90;99.90;;;;;;5030425;28;20178;-67
2021/11/22 07:48:01;;;;;;;9.07;6.22;;;5.90;99.90;;;;;;5030292;28;20207;-67
2021/11/22 07:50:28;;;;;;;6.50;4.40;;;5.90;99.90;;;;;;5026597;28;20272;-66
2021/11/22 07:52:55;;;;;;;11.98;6.43;;;5.90;99.90;;;;;;5027800;28;20245;-65
2021/11/22 07:55:23;;;;;;;9.63;5.57;;;5.90;99.90;;;;;;5034054;28;20230;-67
2021/11/22 07:57:50;;;;;;;10.30;6.93;;;5.90;99.90;;;;;;5030027;28;20202;-67
2021/11/22 08:00:17;;;;;;;10.07;4.50;;;5.90;99.90;;;;;;5025066;28;20228;-66
2021/11/22 08:02:42;;;;;;;5.78;3.97;;;5.90;99.90;;;;;;5033187;28;20184;-67
2021/11/22 08:05:09;;;;;;;6.00;4.03;;;6.00;99.90;;;;;;5028629;28;20174;-66
2021/11/22 08:07:40;;;;;;;7.03;5.65;;;6.00;99.90;;;;;;5034364;28;20279;-64
2021/11/22 08:10:30;;;;;;;5.75;4.80;;;6.00;99.90;;;;;;5033469;28;20219;-67
2021/11/22 08:13:02;;;;;;;14.60;5.10;;;6.00;99.90;;;;;;5033611;28;20183;-69
2021/11/22 08:15:30;;;;;;;6.95;4.65;;;6.00;99.90;;;;;;5022245;28;20178;-66
2021/11/22 08:17:58;;;;;;;5.13;4.63;;;6.00;99.90;;;;;;5021254;28;20203;-65
2021/11/22 08:20:24;;;;;;;5.63;5.05;;;6.00;99.90;;;;;;5027333;28;20198;-64
2021/11/22 08:22:51;;;;;;;9.60;6.68;;;6.10;99.90;;;;;;5026917;28;20273;-69
2021/11/22 08:25:20;;;;;;;5.43;3.95;;;6.10;99.90;;;;;;5024794;28;20174;-66
2021/11/22 08:27:47;;;;;;;8.18;5.15;;;6.10;99.90;;;;;;5022844;28;20202;-69
2021/11/22 08:30:16;;;;;;;5.57;4.88;;;6.20;99.90;;;;;;5024145;28;20245;-65
2021/11/22 08:32:44;;;;;;;4.13;3.50;;;6.20;99.90;;;;;;5027461;28;20271;-65
2021/11/22 08:35:10;;;;;;;6.60;4.38;;;6.20;99.90;;;;;;5024965;28;20622;-67
2021/11/22 08:37:37;;;;;;;14.90;5.65;;;6.20;99.90;;;;;;5026238;28;20269;-65
2021/11/22 08:40:05;;;;;;;8.07;5.68;;;6.30;99.90;;;;;;5025469;28;20211;-66
2021/11/22 08:42:31;;;;;;;8.00;4.25;;;6.30;99.90;;;;;;5024953;28;20239;-67
2021/11/22 08:44:57;;;;;;;7.90;5.50;;;6.30;99.90;;;;;;5027610;28;20570;-66
2021/11/22 08:47:23;;;;;;;5.30;4.38;;;6.30;99.90;;;;;;5026813;28;20215;-65
2021/11/22 08:49:49;;;;;;;7.93;5.72;;;6.40;99.90;;;;;;5033769;28;20170;-67
2021/11/22 08:52:15;;;;;;;8.97;5.13;;;6.40;99.90;;;;;;5033431;28;20191;-66
2021/11/22 08:54:40;;;;;;;8.40;5.33;;;6.40;99.90;;;;;;5027094;28;20460;-67
2021/11/22 08:57:08;;;;;;;5.10;4.40;;;6.40;99.90;;;;;;5017690;28;20429;-68
2021/11/22 08:59:34;;;;;;;7.90;4.95;;;6.30;99.90;;;;;;5025332;28;20215;-67
2021/11/22 09:02:00;;;;;;;5.75;5.15;;;6.40;99.90;;;;;;5024373;28;20226;-65
2021/11/22 09:04:27;;;;;;;8.40;5.90;;;6.40;99.90;;;;;;5030864;28;20175;-66
2021/11/22 09:06:52;;;;;;;8.32;4.68;;;6.40;99.90;;;;;;5022123;28;20566;-64
2021/11/22 09:09:18;;;;;;;6.20;4.30;;;6.40;99.90;;;;;;5022231;28;20249;-64
2021/11/22 09:11:46;;;;;;;5.95;4.60;;;6.40;99.90;;;;;;5025137;28;20205;-66
2021/11/22 09:14:12;;;;;;;4.35;3.35;;;6.50;99.90;;;;;;5021009;28;20180;-66
2021/11/22 09:16:39;;;;;;;6.78;4.63;;;6.50;99.90;;;;;;5024470;28;20261;-66
2021/11/22 09:19:05;;;;;;;5.45;4.10;;;6.50;99.90;;;;;;5027134;28;20198;-68
2021/11/22 09:21:31;;;;;;;5.43;4.83;;;6.50;99.90;;;;;;5023813;28;20182;-67
2021/11/22 09:23:58;;;;;;;8.65;4.93;;;6.50;99.90;;;;;;5021954;28;20420;-66
2021/11/22 09:26:24;;;;;;;6.07;4.53;;;6.50;99.90;;;;;;5022265;28;20219;-67
2021/11/22 09:28:50;;;;;;;5.20;4.70;;;6.60;99.90;;;;;;5026293;28;20264;-65
2021/11/22 09:31:16;;;;;;;8.30;3.90;;;6.60;99.90;;;;;;5030214;28;20185;-66
2021/11/22 09:33:46;;;;;;;5.97;4.40;;;6.70;99.90;;;;;;5033652;28;20895;-64
2021/11/22 09:36:12;;;;;;;6.50;4.40;;;6.70;99.90;;;;;;5032548;28;20188;-68
2021/11/22 09:38:38;;;;;;;7.38;4.38;;;6.70;99.90;;;;;;5032328;28;20233;-64
2021/11/22 09:41:06;;;;;;;4.10;3.70;;;6.70;99.90;;;;;;5031020;28;20695;-65
2021/11/22 09:43:33;;;;;;;6.80;5.05;;;6.80;99.90;;;;;;5025040;28;20219;-64
2021/11/22 09:45:59;;;;;;;7.95;4.53;;;6.80;99.90;;;;;;5025861;28;20660;-66
2021/11/22 09:48:26;;;;;;;6.22;5.55;;;6.90;99.90;;;;;;5024195;28;20191;-65
2021/11/22 09:50:52;;;;;;;6.22;5.22;;;6.90;99.90;;;;;;5027238;28;20538;-67
2021/11/22 09:53:19;;;;;;;10.00;5.30;;;6.90;99.90;;;;;;5025198;28;20179;-65
2021/11/22 09:55:44;;;;;;;9.43;4.45;;;7.00;99.90;;;;;;5021572;28;20519;-66
2021/11/22 09:58:15;;;;;;;7.97;5.40;;;7.00;99.90;;;;;;5025264;28;20189;-67
2021/11/22 10:00:48;;;;;;;5.70;4.55;;;7.10;99.90;;;;;;5026470;28;20216;-65
2021/11/22 10:03:20;;;;;;;5.75;5.25;;;7.10;99.90;;;;;;5025555;28;20168;-67
2021/11/22 10:05:47;;;;;;;5.10;3.42;;;7.20;99.90;;;;;;5023367;28;20188;-66
2021/11/22 10:08:17;;;;;;;9.70;5.95;;;7.20;99.90;;;;;;5031164;28;20231;-67
2021/11/22 10:10:46;;;;;;;10.45;5.03;;;7.20;99.90;;;;;;5012946;28;20199;-69
2021/11/22 10:13:23;;;;;;;5.18;4.68;;;7.20;99.90;;;;;;5030840;28;20656;-68
2021/11/22 10:15:50;;;;;;;3.83;3.50;;;7.20;99.90;;;;;;5032415;28;20181;-66
2021/11/22 10:18:22;;;;;;;4.95;3.70;;;7.20;99.90;;;;;;5030016;28;20220;-67
2021/11/22 10:20:48;;;;;;;5.40;3.80;;;7.30;99.90;;;;;;5026421;28;20521;-66
2021/11/22 10:23:23;;;;;;;5.70;3.63;;;7.30;99.90;;;;;;5027818;28;20176;-66
2021/11/22 10:25:49;;;;;;;4.80;4.32;;;7.30;99.90;;;;;;5038841;28;20255;-65
2021/11/22 10:28:17;;;;;;;5.87;4.43;;;7.40;99.90;;;;;;5029044;28;20605;-66
2021/11/22 10:30:47;;;;;;;6.07;4.40;;;7.40;99.90;;;;;;5029997;28;20657;-66
2021/11/22 10:33:15;;;;;;;5.30;4.80;;;7.40;99.90;;;;;;5028727;28;20546;-65
2021/11/22 10:35:42;;;;;;;4.85;3.97;;;7.50;99.90;;;;;;5032182;28;20211;-65
2021/11/22 10:38:17;;;;;;;4.78;3.35;;;7.60;99.90;;;;;;5027224;28;20296;-66
2021/11/22 10:40:49;;;;;;;4.80;3.45;;;7.70;99.90;;;;;;5025622;28;20279;-67
2021/11/22 10:43:15;;;;;;;6.03;3.65;;;7.70;99.90;;;;;;5033450;28;20202;-65
2021/11/22 10:45:51;;;;;;;7.20;3.70;;;7.80;99.90;;;;;;5036236;28;20212;-65
2021/11/22 10:48:26;;;;;;;3.90;2.90;;;7.70;99.90;;;;;;5035720;28;20191;-65
2021/11/22 10:51:19;;;;;;;4.50;2.97;;;7.70;99.90;;;;;;5036421;28;20184;-64
2021/11/22 10:53:51;;;;;;;3.65;3.30;;;7.70;99.90;;;;;;5029696;28;20177;-65
2021/11/22 10:56:19;;;;;;;4.10;3.72;;;7.70;99.90;;;;;;5021412;28;20208;-65
2021/11/22 10:58:50;;;;;;;6.63;3.45;;;7.70;99.90;;;;;;5011848;28;20242;-64
2021/11/22 11:01:17;;;;;;;5.50;3.67;;;7.60;99.90;;;;;;5029134;28;20235;-65
2021/11/22 11:03:55;;;;;;;4.50;3.88;;;7.70;99.90;;;;;;5029562;28;20268;-64
2021/11/22 11:06:38;;;;;;;3.17;2.65;;;7.60;99.90;;;;;;5024504;28;20174;-64
2021/11/22 11:09:06;;;;;;;6.47;3.90;;;7.60;99.90;;;;;;5022237;28;20533;-65
2021/11/22 11:11:32;;;;;;;3.78;3.47;;;7.60;99.90;;;;;;5027218;28;20181;-64
2021/11/22 11:14:04;;;;;;;4.47;2.70;;;7.60;99.90;;;;;;5031319;28;20171;-65
2021/11/22 11:16:30;;;;;;;4.03;3.47;;;7.60;99.90;;;;;;5028430;28;20200;-64
2021/11/22 11:19:02;;;;;;;5.03;3.40;;;7.60;99.90;;;;;;5029418;28;20189;-64
2021/11/22 11:21:31;;;;;;;10.68;4.25;;;7.50;99.90;;;;;;5016415;28;20201;-68
2021/11/22 11:23:58;;;;;;;2.70;2.47;;;7.50;99.90;;;;;;5018546;28;20181;-62
2021/11/22 11:26:26;;;;;;;3.63;3.33;;;7.50;99.90;;;;;;5015185;28;20194;-66
2021/11/22 11:28:52;;;;;;;3.58;2.88;;;7.60;99.90;;;;;;5029282;28;20556;-66
2021/11/22 11:31:18;;;;;;;2.92;2.72;;;7.60;99.90;;;;;;5041817;28;20179;-67
2021/11/22 11:33:44;;;;;;;3.53;3.22;;;7.60;99.90;;;;;;5049501;28;20180;-64
2021/11/22 11:36:29;;;;;;;4.83;3.80;;;7.60;99.90;;;;;;5034168;28;20189;-64
2021/11/22 11:39:36;;;;;;;4.80;3.28;;;7.60;99.90;;;;;;5034932;28;20463;-64
2021/11/22 11:42:20;;;;;;;3.45;3.15;;;7.70;99.90;;;;;;5030012;28;20184;-66
2021/11/22 11:45:04;;;;;;;4.22;2.83;;;7.70;99.90;;;;;;5021363;28;20181;-65
2021/11/22 11:48:05;;;;;;;2.47;2.28;;;7.70;99.90;;;;;;5026796;28;20177;-66
2021/11/22 11:50:36;;;;;;;3.38;3.05;;;7.70;99.90;;;;;;5014154;28;20175;-63
2021/11/22 11:53:12;;;;;;;4.05;3.28;;;7.70;99.90;;;;;;5019717;28;20186;-65
2021/11/22 11:55:38;;;;;;;3.88;3.30;;;7.70;99.90;;;;;;5025293;28;20811;-64
2021/11/22 11:58:26;;;;;;;4.45;3.83;;;7.60;99.90;;;;;;5052653;22;20726;-65
2021/11/22 12:00:59;;;;;;;3.45;3.15;;;7.70;99.90;;;;;;5009574;28;20204;-66
2021/11/22 12:03:28;;;;;;;6.28;3.65;;;7.70;99.90;;;;;;5010251;28;20232;-64
2021/11/22 12:05:55;;;;;;;4.22;3.08;;;7.60;99.90;;;;;;5003908;28;20179;-62
2021/11/22 12:08:23;;;;;;;4.43;2.97;;;7.60;99.90;;;;;;5002467;28;20209;-65
2021/11/22 12:10:50;;;;;;;5.70;3.00;;;7.70;99.90;;;;;;5002821;28;20180;-67
2021/11/22 12:13:17;;;;;;;4.35;2.78;;;7.60;99.90;;;;;;4995349;28;20178;-64
2021/11/22 12:15:45;;;;;;;2.58;2.13;;;7.60;99.90;;;;;;4996629;28;20178;-65
2021/11/22 12:18:22;;;;;;;3.70;2.92;;;7.50;99.90;;;;;;4990796;28;20199;-64
2021/11/22 12:20:49;;;;;;;4.22;3.88;;;7.50;99.90;;;;;;4988738;28;20195;-68
2021/11/22 12:23:18;;;;;;;3.60;3.20;;;7.40;99.90;;;;;;4990265;28;20175;-65
2021/11/22 12:25:47;;;;;;;3.38;2.78;;;7.40;99.90;;;;;;4989337;28;20178;-64
2021/11/22 12:28:33;;;;;;;2.67;2.47;;;7.40;99.90;;;;;;4991499;28;20196;-66
2021/11/22 12:31:09;;;;;;;2.85;2.60;;;7.40;99.90;;;;;;4990370;28;20211;-64
2021/11/22 12:33:41;;;;;;;2.75;2.50;;;7.30;99.90;;;;;;4995011;28;20252;-65
2021/11/22 12:36:27;;;;;;;3.30;2.40;;;7.30;99.90;;;;;;4993861;28;20178;-65
2021/11/22 12:39:00;;;;;;;3.05;2.17;;;7.30;99.90;;;;;;4993337;28;20198;-64
2021/11/22 12:41:31;;;;;;;2.55;2.35;;;7.30;99.90;;;;;;5020954;28;20211;-64
2021/11/22 12:43:58;;;;;;;3.00;2.72;;;7.30;99.90;;;;;;4975581;28;20721;-65
2021/11/22 12:46:40;;;;;;;3.72;3.42;;;7.30;99.90;;;;;;4974879;28;20200;-66
2021/11/22 12:49:26;;;;;;;2.78;2.58;;;7.30;99.90;;;;;;4975428;28;20186;-65
2021/11/22 12:51:52;;;;;;;5.30;3.53;;;7.30;99.90;;;;;;4975455;28;20215;-65
2021/11/22 12:54:19;;;;;;;3.67;2.77;;;7.30;99.90;;;;;;4975495;28;20167;-65
2021/11/22 12:56:45;;;;;;;2.22;2.03;;;7.30;99.90;;;;;;4975097;28;20413;-65